Time;durP1;ratioP1;P1;durP2;ratioP2;P2;SDS_P1;SDS_P2;PMS_P1;PMS_P2;Temp;Humidity;BMP_temperature;BMP_pressure;BME280_temperature;BME280_humidity;BME280_pressure;Samples;Min_cycle;Max_cycle;Signal;HPM_P1;HPM_P2
2023/03/30 05:00:37;;;;;;;;;2.67;1.33;;;;;;;;5848977;22;45202;-62
2023/03/30 05:03:02;;;;;;;;;2.33;1.00;;;;;;;;5021174;28;45460;-62
2023/03/30 05:05:28;;;;;;;;;5.00;2.00;;;;;;;;5018485;28;45560;-60
2023/03/30 05:07:53;;;;;;;;;3.33;2.00;;;;;;;;5018081;28;45431;-60
2023/03/30 05:10:18;;;;;;;;;2.00;1.67;;;;;;;;5018856;28;45430;-60
2023/03/30 05:12:43;;;;;;;;;2.00;2.00;;;;;;;;5019821;28;46576;-61
2023/03/30 05:15:09;;;;;;;;;2.67;2.33;;;;;;;;5014401;28;45346;-60
2023/03/30 05:17:34;;;;;;;;;7.00;1.33;;;;;;;;5019485;28;45323;-61
2023/03/30 05:20:00;;;;;;;;;1.00;1.00;;;;;;;;5010619;28;45534;-61
2023/03/30 05:22:25;;;;;;;;;2.00;0.67;;;;;;;;5016802;28;47331;-60
2023/03/30 05:24:51;;;;;;;;;3.00;3.00;;;;;;;;5016726;28;45427;-61
2023/03/30 05:27:16;;;;;;;;;2.33;1.33;;;;;;;;5004396;28;45331;-61
2023/03/30 05:29:42;;;;;;;;;4.00;3.00;;;;;;;;5019507;28;45320;-61
2023/03/30 05:32:08;;;;;;;;;1.67;1.00;;;;;;;;5010273;28;45343;-61
2023/03/30 05:34:33;;;;;;;;;4.33;1.67;;;;;;;;5003373;28;45342;-61
2023/03/30 05:36:58;;;;;;;;;1.33;1.33;;;;;;;;5003752;28;45399;-61
2023/03/30 05:39:23;;;;;;;;;2.00;1.00;;;;;;;;5008951;28;45667;-61
2023/03/30 05:41:48;;;;;;;;;1.33;0.67;;;;;;;;5010123;28;46272;-61
2023/03/30 05:44:14;;;;;;;;;3.00;1.33;;;;;;;;5006692;28;45249;-61
2023/03/30 05:46:40;;;;;;;;;2.00;1.67;;;;;;;;5013028;28;45392;-61
2023/03/30 05:49:05;;;;;;;;;1.33;1.00;;;;;;;;5016427;28;45327;-61
2023/03/30 05:51:30;;;;;;;;;4.00;2.33;;;;;;;;5003053;28;46342;-61
2023/03/30 05:53:55;;;;;;;;;1.67;1.67;;;;;;;;5018723;28;45338;-61
2023/03/30 05:56:22;;;;;;;;;1.67;1.67;;;;;;;;5018817;28;45355;-62
2023/03/30 05:58:47;;;;;;;;;0.67;0.67;;;;;;;;5018983;28;45441;-61
2023/03/30 06:01:13;;;;;;;;;3.67;1.67;;;;;;;;5008772;28;46381;-61
2023/03/30 06:03:38;;;;;;;;;2.67;0.67;;;;;;;;5015715;28;45330;-62
2023/03/30 06:06:04;;;;;;;;;1.67;1.67;;;;;;;;5003969;28;45434;-61
2023/03/30 06:08:30;;;;;;;;;4.33;3.33;;;;;;;;5005831;28;45298;-62
2023/03/30 06:10:55;;;;;;;;;2.00;2.00;;;;;;;;5022525;28;46558;-61
2023/03/30 06:13:21;;;;;;;;;3.33;1.67;;;;;;;;5030576;28;45263;-61
2023/03/30 06:15:46;;;;;;;;;2.67;1.67;;;;;;;;5034964;28;45358;-61
2023/03/30 06:18:12;;;;;;;;;3.00;1.67;;;;;;;;5034432;28;45374;-61
2023/03/30 06:20:37;;;;;;;;;2.67;2.67;;;;;;;;5019638;28;46299;-61
2023/03/30 06:23:02;;;;;;;;;4.00;1.00;;;;;;;;5014848;28;45726;-61
2023/03/30 06:25:28;;;;;;;;;4.00;1.00;;;;;;;;5022447;28;45221;-61
2023/03/30 06:27:53;;;;;;;;;3.00;1.00;;;;;;;;5034079;28;45337;-61
2023/03/30 06:30:19;;;;;;;;;4.33;1.33;;;;;;;;5022070;28;45304;-58
2023/03/30 06:32:44;;;;;;;;;5.67;2.00;;;;;;;;5005438;28;45649;-60
2023/03/30 06:35:09;;;;;;;;;1.00;1.00;;;;;;;;5013324;28;45558;-60
2023/03/30 06:37:37;;;;;;;;;8.33;1.67;;;;;;;;5017195;28;45345;-59
2023/03/30 06:40:07;;;;;;;;;3.67;1.67;;;;;;;;5017303;28;47220;-60
2023/03/30 06:42:32;;;;;;;;;5.00;3.00;;;;;;;;5011536;28;45433;-60
2023/03/30 06:44:57;;;;;;;;;7.67;2.00;;;;;;;;5019098;28;45349;-60
2023/03/30 06:47:23;;;;;;;;;3.33;1.67;;;;;;;;5018480;28;45469;-60
2023/03/30 06:49:48;;;;;;;;;3.33;2.33;;;;;;;;5009608;28;47150;-61
2023/03/30 06:52:14;;;;;;;;;1.33;0.67;;;;;;;;5014174;28;45406;-61
2023/03/30 06:54:39;;;;;;;;;4.00;2.00;;;;;;;;5005653;28;45298;-60
2023/03/30 06:57:04;;;;;;;;;6.33;2.00;;;;;;;;5012564;28;45560;-60
2023/03/30 06:59:31;;;;;;;;;1.67;1.67;;;;;;;;5011367;28;45706;-60
2023/03/30 07:01:56;;;;;;;;;3.67;1.67;;;;;;;;5011903;28;45841;-60
2023/03/30 07:04:22;;;;;;;;;1.33;1.00;;;;;;;;5012075;28;45384;-60
2023/03/30 07:06:47;;;;;;;;;5.67;0.67;;;;;;;;5013565;28;45387;-61
2023/03/30 07:09:12;;;;;;;;;2.33;1.00;;;;;;;;5010673;28;46785;-60
2023/03/30 07:11:37;;;;;;;;;2.67;2.33;;;;;;;;5014548;28;45312;-61
2023/03/30 07:14:04;;;;;;;;;3.33;1.33;;;;;;;;5007459;28;45492;-60
2023/03/30 07:16:29;;;;;;;;;2.00;2.00;;;;;;;;5016436;28;45299;-61
2023/03/30 07:18:55;;;;;;;;;4.67;2.00;;;;;;;;5012549;28;47143;-60
2023/03/30 07:21:20;;;;;;;;;3.00;1.67;;;;;;;;5013748;28;45319;-60
2023/03/30 07:23:45;;;;;;;;;5.33;4.33;;;;;;;;5013805;28;45347;-60
2023/03/30 07:26:10;;;;;;;;;5.00;2.67;;;;;;;;5012156;28;45337;-60
2023/03/30 07:28:39;;;;;;;;;7.67;3.67;;;;;;;;5012992;28;45484;-61
2023/03/30 07:31:08;;;;;;;;;3.00;1.00;;;;;;;;5013919;28;45484;-60
2023/03/30 07:33:35;;;;;;;;;1.33;1.33;;;;;;;;5003642;28;45534;-60
2023/03/30 07:36:00;;;;;;;;;4.00;3.00;;;;;;;;5012666;28;45473;-60
2023/03/30 07:38:26;;;;;;;;;1.00;1.00;;;;;;;;5015114;28;46649;-60
2023/03/30 07:40:51;;;;;;;;;3.67;2.00;;;;;;;;5012718;28;45225;-60
2023/03/30 07:43:16;;;;;;;;;2.67;1.67;;;;;;;;5017942;28;45507;-60
2023/03/30 07:45:41;;;;;;;;;2.00;2.00;;;;;;;;5016473;28;45278;-63
2023/03/30 07:48:07;;;;;;;;;2.67;1.00;;;;;;;;5016965;28;45324;-60
2023/03/30 07:50:32;;;;;;;;;5.33;2.00;;;;;;;;5014358;28;46099;-60
2023/03/30 07:52:57;;;;;;;;;5.00;1.67;;;;;;;;5012717;28;45281;-60
2023/03/30 07:55:23;;;;;;;;;2.67;1.00;;;;;;;;5015190;28;45565;-60
2023/03/30 07:57:49;;;;;;;;;6.00;2.00;;;;;;;;5015005;28;48016;-60
2023/03/30 08:00:14;;;;;;;;;2.67;2.00;;;;;;;;5010334;28;45438;-60
2023/03/30 08:02:40;;;;;;;;;2.00;1.00;;;;;;;;5018395;28;45595;-62
2023/03/30 08:05:06;;;;;;;;;3.33;2.00;;;;;;;;5018550;28;45434;-60
2023/03/30 08:07:33;;;;;;;;;3.33;1.67;;;;;;;;5013511;28;45783;-61
2023/03/30 08:09:58;;;;;;;;;2.00;2.00;;;;;;;;5007587;28;45566;-60
2023/03/30 08:12:23;;;;;;;;;4.33;1.00;;;;;;;;5014931;28;45435;-60
2023/03/30 08:14:48;;;;;;;;;4.00;2.33;;;;;;;;5013814;28;45564;-60
2023/03/30 08:17:13;;;;;;;;;4.00;1.33;;;;;;;;5009524;28;46200;-61
2023/03/30 08:19:39;;;;;;;;;1.00;1.00;;;;;;;;5016468;28;45338;-61
2023/03/30 08:22:04;;;;;;;;;1.00;1.00;;;;;;;;5018102;28;45486;-60
2023/03/30 08:24:29;;;;;;;;;5.00;2.00;;;;;;;;5012074;28;45316;-60
2023/03/30 08:26:55;;;;;;;;;3.33;3.00;;;;;;;;5012006;28;47932;-60
2023/03/30 08:29:20;;;;;;;;;2.00;2.00;;;;;;;;5018001;28;45433;-60
2023/03/30 08:31:46;;;;;;;;;2.00;2.00;;;;;;;;5017843;28;45535;-60
2023/03/30 08:34:11;;;;;;;;;4.67;2.00;;;;;;;;5018014;28;45649;-62
2023/03/30 08:36:37;;;;;;;;;5.67;2.33;;;;;;;;5018522;28;45639;-61
2023/03/30 08:39:03;;;;;;;;;3.67;2.33;;;;;;;;5012958;28;45384;-61
2023/03/30 08:41:28;;;;;;;;;3.00;1.67;;;;;;;;5017415;28;45363;-61
2023/03/30 08:44:00;;;;;;;;;2.00;1.00;;;;;;;;5016526;28;45533;-61
2023/03/30 08:46:27;;;;;;;;;6.00;2.00;;;;;;;;5017560;28;45461;-61
2023/03/30 08:48:53;;;;;;;;;3.00;1.00;;;;;;;;5019342;28;45434;-65
2023/03/30 08:51:30;;;;;;;;;3.00;1.00;;;;;;;;5018381;28;45475;-61
2023/03/30 08:54:05;;;;;;;;;2.00;0.00;;;;;;;;5017015;28;45514;-61
2023/03/30 08:56:31;;;;;;;;;1.67;1.00;;;;;;;;5015294;28;45474;-60
2023/03/30 08:59:02;;;;;;;;;4.00;2.33;;;;;;;;5016016;28;45628;-61
2023/03/30 09:01:33;;;;;;;;;7.33;3.33;;;;;;;;5018071;28;45493;-60
2023/03/30 09:04:15;;;;;;;;;4.00;2.00;;;;;;;;5019036;28;45560;-61
2023/03/30 09:06:56;;;;;;;;;4.00;2.33;;;;;;;;5014023;28;46303;-60
2023/03/30 09:09:22;;;;;;;;;3.33;2.67;;;;;;;;5017052;28;45463;-62
2023/03/30 09:11:50;;;;;;;;;3.00;2.00;;;;;;;;5006133;28;45332;-61
2023/03/30 09:14:26;;;;;;;;;2.00;2.00;;;;;;;;5015384;28;45474;-61
2023/03/30 09:16:54;;;;;;;;;3.67;3.00;;;;;;;;5009921;28;45686;-60
2023/03/30 09:19:26;;;;;;;;;3.33;2.00;;;;;;;;5011523;28;45313;-60
2023/03/30 09:21:52;;;;;;;;;7.00;2.00;;;;;;;;5015993;28;45488;-60
2023/03/30 09:24:22;;;;;;;;;5.33;1.00;;;;;;;;5017644;28;45453;-61
2023/03/30 09:26:51;;;;;;;;;3.67;2.00;;;;;;;;5014356;28;45709;-61
2023/03/30 09:29:18;;;;;;;;;1.33;1.00;;;;;;;;5016708;28;45256;-61
2023/03/30 09:31:46;;;;;;;;;1.67;1.67;;;;;;;;5019011;28;45319;-60
2023/03/30 09:34:30;;;;;;;;;3.67;3.00;;;;;;;;5006821;28;45948;-60
2023/03/30 09:36:58;;;;;;;;;4.67;3.00;;;;;;;;5014208;28;46359;-60
2023/03/30 09:39:26;;;;;;;;;4.00;2.00;;;;;;;;5015672;28;45473;-61
2023/03/30 09:42:00;;;;;;;;;1.00;1.00;;;;;;;;5014885;28;45639;-60
2023/03/30 09:44:38;;;;;;;;;6.67;2.00;;;;;;;;5006957;28;45643;-60
2023/03/30 09:47:15;;;;;;;;;5.67;3.00;;;;;;;;5012890;28;45396;-61
2023/03/30 09:49:40;;;;;;;;;8.33;2.67;;;;;;;;5012708;28;45298;-61
2023/03/30 09:52:06;;;;;;;;;1.00;1.00;;;;;;;;5017485;28;45883;-60
2023/03/30 09:54:36;;;;;;;;;3.00;1.00;;;;;;;;5013635;28;45260;-60
2023/03/30 09:57:01;;;;;;;;;1.00;1.00;;;;;;;;5005444;28;47195;-60
2023/03/30 09:59:30;;;;;;;;;2.00;2.00;;;;;;;;5013310;28;45486;-60
2023/03/30 10:02:16;;;;;;;;;4.00;2.67;;;;;;;;5016141;28;45368;-60
2023/03/30 10:04:58;;;;;;;;;5.33;3.33;;;;;;;;5016348;28;45279;-60
2023/03/30 10:07:40;;;;;;;;;4.00;2.33;;;;;;;;5014612;28;46370;-60
2023/03/30 10:10:13;;;;;;;;;4.00;3.00;;;;;;;;5011262;28;45616;-59
2023/03/30 10:12:38;;;;;;;;;2.00;1.00;;;;;;;;5008295;28;45437;-59
2023/03/30 10:15:04;;;;;;;;;2.00;2.00;;;;;;;;5009223;28;45258;-60
2023/03/30 10:17:30;;;;;;;;;3.00;2.00;;;;;;;;5012129;28;46355;-61
2023/03/30 10:20:13;;;;;;;;;3.67;2.00;;;;;;;;5018201;28;45343;-60
2023/03/30 10:23:07;;;;;;;;;2.00;2.00;;;;;;;;5008884;28;45724;-60
2023/03/30 10:25:32;;;;;;;;;8.00;1.67;;;;;;;;5007102;28;45671;-61
2023/03/30 10:28:03;;;;;;;;;2.67;2.67;;;;;;;;5004082;28;46370;-60
2023/03/30 10:30:30;;;;;;;;;2.00;2.00;;;;;;;;5010080;28;45456;-60
2023/03/30 10:32:57;;;;;;;;;6.00;2.67;;;;;;;;5010764;28;45400;-60
2023/03/30 10:35:23;;;;;;;;;4.00;2.00;;;;;;;;5011466;28;45461;-61
2023/03/30 10:37:50;;;;;;;;;4.00;0.75;;;;;;;;5013432;28;46891;-61
2023/03/30 10:40:39;;;;;;;;;5.00;3.00;;;;;;;;5011942;28;45483;-60
2023/03/30 10:43:09;;;;;;;;;3.25;1.50;;;;;;;;4999381;28;45712;-61
2023/03/30 10:45:46;;;;;;;;;2.67;2.67;;;;;;;;5014447;28;45558;-60
2023/03/30 10:48:14;;;;;;;;;1.00;1.00;;;;;;;;5012164;28;48437;-61
2023/03/30 10:50:42;;;;;;;;;1.50;1.25;;;;;;;;5017450;28;45490;-61
2023/03/30 10:53:16;;;;;;;;;2.50;2.00;;;;;;;;5015888;28;45435;-61
2023/03/30 10:55:46;;;;;;;;;1.00;1.00;;;;;;;;5014400;28;45300;-61
2023/03/30 10:58:19;;;;;;;;;2.50;1.00;;;;;;;;5011042;28;46606;-61
2023/03/30 11:00:54;;;;;;;;;5.00;2.75;;;;;;;;5012910;28;45517;-61
2023/03/30 11:03:23;;;;;;;;;3.00;2.25;;;;;;;;5016367;28;45252;-61
2023/03/30 11:05:50;;;;;;;;;2.00;2.00;;;;;;;;5017930;28;45391;-60
2023/03/30 11:08:23;;;;;;;;;5.00;2.00;;;;;;;;5017342;28;45825;-60
2023/03/30 11:10:52;;;;;;;;;5.00;0.50;;;;;;;;5021472;28;45482;-60
2023/03/30 11:13:23;;;;;;;;;6.75;3.00;;;;;;;;5004618;28;45317;-60
2023/03/30 11:15:58;;;;;;;;;4.50;1.75;;;;;;;;5014428;28;45410;-60
2023/03/30 11:18:41;;;;;;;;;1.75;1.00;;;;;;;;5015279;28;47535;-60
2023/03/30 11:21:18;;;;;;;;;2.00;1.25;;;;;;;;5010834;28;45954;-60
2023/03/30 11:23:43;;;;;;;;;3.75;1.50;;;;;;;;5016269;28;45354;-61
2023/03/30 11:26:11;;;;;;;;;2.50;1.50;;;;;;;;5017720;28;45224;-60
2023/03/30 11:28:42;;;;;;;;;4.00;1.75;;;;;;;;5019139;28;46525;-60
2023/03/30 11:31:17;;;;;;;;;5.00;2.00;;;;;;;;5018202;28;45608;-60
2023/03/30 11:33:46;;;;;;;;;5.00;2.00;;;;;;;;5006671;28;45440;-60
2023/03/30 11:36:20;;;;;;;;;3.75;3.75;;;;;;;;5018048;28;45455;-61
2023/03/30 11:39:00;;;;;;;;;10.75;3.00;;;;;;;;5014762;28;46838;-61
2023/03/30 11:41:44;;;;;;;;;3.75;2.25;;;;;;;;5010542;28;45337;-61
2023/03/30 11:44:10;;;;;;;;;3.00;3.00;;;;;;;;5009204;28;45342;-61
2023/03/30 11:46:55;;;;;;;;;3.00;2.00;;;;;;;;5015523;28;45400;-61
2023/03/30 11:49:20;;;;;;;;;5.00;2.50;;;;;;;;5015061;28;45359;-61
2023/03/30 11:51:55;;;;;;;;;3.75;1.25;;;;;;;;5010476;28;45486;-61
2023/03/30 11:54:37;;;;;;;;;1.25;1.25;;;;;;;;5011007;28;45680;-61
2023/03/30 11:57:21;;;;;;;;;4.00;1.00;;;;;;;;5015313;28;45348;-61
2023/03/30 11:59:46;;;;;;;;;3.00;2.00;;;;;;;;5018287;28;46654;-61
2023/03/30 12:02:11;;;;;;;;;1.60;1.20;;;;;;;;5009827;28;45505;-60
2023/03/30 12:04:47;;;;;;;;;5.25;2.25;;;;;;;;5003404;28;45195;-61
2023/03/30 12:07:22;;;;;;;;;2.50;1.00;;;;;;;;5016577;28;45339;-61
2023/03/30 12:09:52;;;;;;;;;3.00;2.00;;;;;;;;5019328;28;46835;-61
2023/03/30 12:12:23;;;;;;;;;2.50;2.00;;;;;;;;5009960;28;46215;-60
2023/03/30 12:14:48;;;;;;;;;0.00;0.00;;;;;;;;5008994;28;45344;-61
2023/03/30 12:17:25;;;;;;;;;2.00;0.80;;;;;;;;5014856;28;45657;-60
2023/03/30 12:20:02;;;;;;;;;1.00;1.00;;;;;;;;5017473;28;47479;-61
2023/03/30 12:22:32;;;;;;;;;3.00;1.50;;;;;;;;5008402;28;46317;-61
2023/03/30 12:25:05;;;;;;;;;1.00;1.00;;;;;;;;5013313;28;45514;-61
2023/03/30 12:27:33;;;;;;;;;2.25;0.75;;;;;;;;5011362;28;45524;-61
2023/03/30 12:30:12;;;;;;;;;0.75;0.75;;;;;;;;5016682;28;46452;-61
2023/03/30 12:32:37;;;;;;;;;5.00;1.50;;;;;;;;5012862;28;45427;-61
2023/03/30 12:35:22;;;;;;;;;2.25;1.25;;;;;;;;5012659;28;45599;-61
2023/03/30 12:37:47;;;;;;;;;3.25;2.00;;;;;;;;5014317;28;45636;-60
2023/03/30 12:40:19;;;;;;;;;2.00;2.00;;;;;;;;5007652;28;46996;-60
2023/03/30 12:43:11;;;;;;;;;1.75;1.75;;;;;;;;5011774;28;45383;-60
2023/03/30 12:45:49;;;;;;;;;5.00;2.00;;;;;;;;5009949;28;45590;-61
2023/03/30 12:48:17;;;;;;;;;2.75;1.25;;;;;;;;5015577;28;45411;-60
2023/03/30 12:51:01;;;;;;;;;5.25;2.00;;;;;;;;5018150;28;46496;-60
2023/03/30 12:53:32;;;;;;;;;3.00;1.25;;;;;;;;5012660;28;45407;-60
2023/03/30 12:56:00;;;;;;;;;2.00;0.00;;;;;;;;5012933;28;45537;-61
2023/03/30 12:58:41;;;;;;;;;3.50;2.00;;;;;;;;5002036;28;45371;-61
2023/03/30 13:01:12;;;;;;;;;1.25;1.00;;;;;;;;5004837;28;45704;-60
2023/03/30 13:03:46;;;;;;;;;2.25;2.25;;;;;;;;5024720;28;46023;-61
2023/03/30 13:06:22;;;;;;;;;4.50;3.00;;;;;;;;5016096;28;45788;-61
2023/03/30 13:08:52;;;;;;;;;2.00;1.00;;;;;;;;5006469;28;45406;-61
2023/03/30 13:11:18;;;;;;;;;2.00;2.00;;;;;;;;5016044;28;46394;-60
2023/03/30 13:13:45;;;;;;;;;3.00;1.00;;;;;;;;5013993;28;45373;-62
2023/03/30 13:16:11;;;;;;;;;3.25;2.00;;;;;;;;5013854;28;45452;-61
2023/03/30 13:18:50;;;;;;;;;3.75;0.75;;;;;;;;5016581;28;45537;-61
2023/03/30 13:21:15;;;;;;;;;2.25;1.50;;;;;;;;5022572;28;47970;-60
2023/03/30 13:23:42;;;;;;;;;6.00;2.00;;;;;;;;5012740;28;45683;-60
2023/03/30 13:26:21;;;;;;;;;1.00;0.00;;;;;;;;5018802;28;45277;-60
2023/03/30 13:28:53;;;;;;;;;2.00;1.00;;;;;;;;5013376;28;45553;-60
2023/03/30 13:31:24;;;;;;;;;1.00;0.00;;;;;;;;5016571;28;45524;-60
2023/03/30 13:33:55;;;;;;;;;2.00;0.25;;;;;;;;5014638;28;45333;-60
2023/03/30 13:36:23;;;;;;;;;1.00;1.00;;;;;;;;5013084;28;45649;-60
2023/03/30 13:38:51;;;;;;;;;0.50;0.50;;;;;;;;5009668;28;45428;-60
2023/03/30 13:41:19;;;;;;;;;0.00;0.00;;;;;;;;5011133;28;45575;-60
2023/03/30 13:43:47;;;;;;;;;1.50;0.75;;;;;;;;5010654;28;45273;-60
2023/03/30 13:46:12;;;;;;;;;0.75;0.25;;;;;;;;5015077;28;45720;-60
2023/03/30 13:48:56;;;;;;;;;0.00;0.00;;;;;;;;5001102;28;45514;-60
2023/03/30 13:51:24;;;;;;;;;2.00;0.25;;;;;;;;5007152;28;45693;-60
2023/03/30 13:53:52;;;;;;;;;1.00;1.00;;;;;;;;5010451;28;45355;-59
2023/03/30 13:56:18;;;;;;;;;2.50;0.00;;;;;;;;5013402;28;45264;-60
2023/03/30 13:58:54;;;;;;;;;1.00;1.00;;;;;;;;5013149;28;45495;-60
2023/03/30 14:01:21;;;;;;;;;2.00;0.00;;;;;;;;5015739;28;46417;-60
2023/03/30 14:03:50;;;;;;;;;3.75;0.75;;;;;;;;5008882;28;45602;-60
2023/03/30 14:06:15;;;;;;;;;0.00;0.00;;;;;;;;5006236;28;45641;-60
2023/03/30 14:08:43;;;;;;;;;0.25;0.00;;;;;;;;5007531;28;45477;-59
2023/03/30 14:11:13;;;;;;;;;2.00;0.50;;;;;;;;5010264;28;45540;-58
2023/03/30 14:13:38;;;;;;;;;2.00;0.50;;;;;;;;5005378;28;45860;-59
2023/03/30 14:16:04;;;;;;;;;2.00;1.00;;;;;;;;5006013;28;45864;-58
2023/03/30 14:18:30;;;;;;;;;2.25;0.50;;;;;;;;5016638;28;45484;-58
2023/03/30 14:20:56;;;;;;;;;2.25;1.25;;;;;;;;5014729;28;46349;-59
2023/03/30 14:23:21;;;;;;;;;3.25;1.00;;;;;;;;5014885;28;45450;-58
2023/03/30 14:25:46;;;;;;;;;4.00;2.00;;;;;;;;5015710;28;45470;-59
2023/03/30 14:28:16;;;;;;;;;1.00;0.25;;;;;;;;5013343;28;45642;-58
2023/03/30 14:30:52;;;;;;;;;17.33;4.67;;;;;;;;5016325;28;46431;-61
2023/03/30 14:33:18;;;;;;;;;0.67;0.67;;;;;;;;5006360;28;45688;-58
2023/03/30 14:35:45;;;;;;;;;2.50;1.00;;;;;;;;5015133;28;45429;-58
2023/03/30 14:38:16;;;;;;;;;3.00;1.00;;;;;;;;5014833;28;45458;-58
2023/03/30 14:40:41;;;;;;;;;1.75;1.00;;;;;;;;5013014;28;46287;-58
2023/03/30 14:43:11;;;;;;;;;1.00;1.00;;;;;;;;5011090;28;45354;-59
2023/03/30 14:45:36;;;;;;;;;2.67;2.67;;;;;;;;5016173;28;45520;-58
2023/03/30 14:48:02;;;;;;;;;2.00;1.00;;;;;;;;5007360;28;45311;-59
2023/03/30 14:50:27;;;;;;;;;3.00;2.00;;;;;;;;5009868;28;46006;-58
2023/03/30 14:52:53;;;;;;;;;1.33;1.00;;;;;;;;5017286;28;45347;-58
2023/03/30 14:55:23;;;;;;;;;1.00;1.00;;;;;;;;5013987;28;45185;-58
2023/03/30 14:57:49;;;;;;;;;1.00;1.00;;;;;;;;5015022;28;45671;-58
2023/03/30 15:02:45;;;;;;;;;3.50;0.50;;;;;;;;5012209;28;45284;-58
2023/03/30 15:05:10;;;;;;;;;1.00;1.00;;;;;;;;5009895;28;45446;-58
2023/03/30 15:07:35;;;;;;;;;1.67;1.00;;;;;;;;5008977;28;45421;-58
2023/03/30 15:10:01;;;;;;;;;1.33;0.00;;;;;;;;5026733;28;46916;-58
2023/03/30 15:12:38;;;;;;;;;1.67;0.67;;;;;;;;5026798;28;45291;-58
2023/03/30 15:15:07;;;;;;;;;0.00;0.00;;;;;;;;5015002;28;45546;-58
2023/03/30 15:17:34;;;;;;;;;1.33;0.00;;;;;;;;5009064;28;45518;-58
2023/03/30 15:20:00;;;;;;;;;1.67;1.00;;;;;;;;5026893;28;46448;-59
2023/03/30 15:22:29;;;;;;;;;2.00;0.33;;;;;;;;5022444;28;45569;-58
2023/03/30 15:24:55;;;;;;;;;1.00;1.00;;;;;;;;5020043;28;45359;-61
2023/03/30 15:27:21;;;;;;;;;3.00;2.00;;;;;;;;5032102;28;45436;-59
2023/03/30 15:29:47;;;;;;;;;2.67;2.67;;;;;;;;5025351;28;47715;-59
2023/03/30 15:32:12;;;;;;;;;2.67;2.00;;;;;;;;5013107;28;45557;-59
2023/03/30 15:34:55;;;;;;;;;3.25;2.00;;;;;;;;5017234;28;45397;-59
2023/03/30 15:37:21;;;;;;;;;2.33;1.00;;;;;;;;5030595;28;45610;-59
2023/03/30 15:39:47;;;;;;;;;6.00;2.00;;;;;;;;5009521;28;46278;-59
2023/03/30 15:42:22;;;;;;;;;3.67;1.67;;;;;;;;5015456;28;45710;-58
2023/03/30 15:44:58;;;;;;;;;3.33;2.00;;;;;;;;5007798;28;45315;-59
2023/03/30 15:47:23;;;;;;;;;3.67;2.00;;;;;;;;5010397;28;45396;-58
2023/03/30 15:49:49;;;;;;;;;2.33;1.67;;;;;;;;5006470;28;46057;-59
2023/03/30 15:52:20;;;;;;;;;3.00;2.00;;;;;;;;5015393;28;45461;-59
2023/03/30 15:54:52;;;;;;;;;2.00;1.25;;;;;;;;5017686;28;45299;-59
2023/03/30 15:57:23;;;;;;;;;0.67;0.67;;;;;;;;5011655;28;45473;-59
2023/03/30 15:59:54;;;;;;;;;2.00;2.00;;;;;;;;5008292;28;47962;-59
2023/03/30 16:02:34;;;;;;;;;2.00;0.67;;;;;;;;5019213;28;45432;-59
2023/03/30 16:05:00;;;;;;;;;2.33;2.33;;;;;;;;5012319;28;45295;-59
2023/03/30 16:07:25;;;;;;;;;1.00;1.00;;;;;;;;5014520;28;45262;-59
2023/03/30 16:09:51;;;;;;;;;2.33;1.00;;;;;;;;5019665;28;48176;-59
2023/03/30 16:12:21;;;;;;;;;3.00;2.67;;;;;;;;5017406;28;45422;-59
2023/03/30 16:14:47;;;;;;;;;5.00;3.00;;;;;;;;5020636;28;45370;-59
2023/03/30 16:17:12;;;;;;;;;2.00;2.00;;;;;;;;5017310;28;45277;-58
2023/03/30 16:19:41;;;;;;;;;1.00;1.00;;;;;;;;5020743;28;46059;-59
2023/03/30 16:22:06;;;;;;;;;2.33;1.00;;;;;;;;5013993;28;45289;-59
2023/03/30 16:24:32;;;;;;;;;3.67;1.33;;;;;;;;5019594;28;45423;-59
2023/03/30 16:26:57;;;;;;;;;1.67;1.00;;;;;;;;5014617;28;45331;-59
2023/03/30 16:29:22;;;;;;;;;1.00;1.00;;;;;;;;5016873;28;45498;-59
2023/03/30 16:31:48;;;;;;;;;3.00;1.00;;;;;;;;5017407;28;45317;-59
2023/03/30 16:34:13;;;;;;;;;1.00;1.00;;;;;;;;5020442;28;45235;-59
2023/03/30 16:36:38;;;;;;;;;4.00;1.33;;;;;;;;5019206;28;45567;-58
2023/03/30 16:39:11;;;;;;;;;0.67;0.67;;;;;;;;5016778;28;46489;-59
2023/03/30 16:41:37;;;;;;;;;2.33;0.00;;;;;;;;5016832;28;45284;-59
2023/03/30 16:44:02;;;;;;;;;1.00;1.00;;;;;;;;5019859;28;45588;-60
2023/03/30 16:46:27;;;;;;;;;2.00;1.00;;;;;;;;5014503;28;45584;-59
2023/03/30 16:48:52;;;;;;;;;1.00;1.00;;;;;;;;5016013;28;45618;-59
2023/03/30 16:51:18;;;;;;;;;0.33;0.33;;;;;;;;5009406;28;45564;-59
2023/03/30 16:53:44;;;;;;;;;2.00;1.00;;;;;;;;5005460;28;45760;-59
2023/03/30 16:56:16;;;;;;;;;1.67;1.00;;;;;;;;5009969;28;45418;-59
2023/03/30 16:58:41;;;;;;;;;2.00;0.67;;;;;;;;5007391;28;45473;-59
2023/03/30 17:01:11;;;;;;;;;3.33;2.00;;;;;;;;5004288;28;46029;-59
2023/03/30 17:03:37;;;;;;;;;2.00;0.67;;;;;;;;4999221;28;45431;-59
2023/03/30 17:06:02;;;;;;;;;1.67;1.67;;;;;;;;4995088;28;45513;-58
2023/03/30 17:08:27;;;;;;;;;2.00;2.00;;;;;;;;5015160;28;45556;-59
2023/03/30 17:10:55;;;;;;;;;7.00;2.00;;;;;;;;5009971;28;45386;-59
2023/03/30 17:13:21;;;;;;;;;3.00;2.00;;;;;;;;5002924;28;45640;-60
2023/03/30 17:15:46;;;;;;;;;3.00;3.00;;;;;;;;5015662;28;45508;-59
2023/03/30 17:18:13;;;;;;;;;5.33;4.33;;;;;;;;5012636;28;48124;-59
2023/03/30 17:20:41;;;;;;;;;2.00;2.00;;;;;;;;5012593;28;45482;-59
2023/03/30 17:23:07;;;;;;;;;6.00;3.67;;;;;;;;5012316;28;45359;-59
2023/03/30 17:25:34;;;;;;;;;2.00;2.00;;;;;;;;5013965;28;45429;-59
2023/03/30 17:28:03;;;;;;;;;2.67;1.33;;;;;;;;5012502;28;46828;-59
2023/03/30 17:30:32;;;;;;;;;3.67;1.33;;;;;;;;5008861;28;45410;-59
2023/03/30 17:32:57;;;;;;;;;2.00;2.00;;;;;;;;5012752;28;45538;-59
2023/03/30 17:35:24;;;;;;;;;3.67;3.00;;;;;;;;5011332;28;45969;-60
2023/03/30 17:37:50;;;;;;;;;2.00;2.00;;;;;;;;5010555;28;46787;-59
2023/03/30 17:40:20;;;;;;;;;2.67;1.67;;;;;;;;5013018;28;45890;-59
2023/03/30 17:42:45;;;;;;;;;3.00;2.00;;;;;;;;5012834;28;45382;-59
2023/03/30 17:45:12;;;;;;;;;1.33;1.33;;;;;;;;5008591;28;45438;-59
2023/03/30 17:47:37;;;;;;;;;3.00;2.33;;;;;;;;5004577;28;46184;-59
2023/03/30 17:50:14;;;;;;;;;6.67;3.00;;;;;;;;5003713;28;45526;-59
2023/03/30 17:52:40;;;;;;;;;2.00;2.00;;;;;;;;5014350;28;45371;-59
2023/03/30 17:55:06;;;;;;;;;5.00;2.67;;;;;;;;5009165;28;45474;-59
2023/03/30 17:57:31;;;;;;;;;1.33;1.00;;;;;;;;5005883;28;48180;-60
2023/03/30 17:59:57;;;;;;;;;8.00;3.33;;;;;;;;5012531;28;45569;-59
2023/03/30 18:02:22;;;;;;;;;3.67;3.00;;;;;;;;5003021;28;45568;-59
2023/03/30 18:04:47;;;;;;;;;2.00;2.00;;;;;;;;5007348;28;45459;-59
2023/03/30 18:07:15;;;;;;;;;2.33;2.00;;;;;;;;5018383;28;45481;-59
2023/03/30 18:09:40;;;;;;;;;2.00;2.00;;;;;;;;5015675;28;45655;-59
2023/03/30 18:12:05;;;;;;;;;4.00;2.33;;;;;;;;5017778;28;45462;-59
2023/03/30 18:14:31;;;;;;;;;6.00;2.00;;;;;;;;5009566;28;45514;-56
2023/03/30 18:16:56;;;;;;;;;5.00;3.00;;;;;;;;5017633;28;46257;-59
2023/03/30 18:19:21;;;;;;;;;4.33;4.00;;;;;;;;5016370;28;45358;-58
2023/03/30 18:21:46;;;;;;;;;8.67;4.00;;;;;;;;5018576;28;45359;-58
2023/03/30 18:24:11;;;;;;;;;4.00;2.00;;;;;;;;5008120;28;45375;-58
2023/03/30 18:26:39;;;;;;;;;4.00;3.00;;;;;;;;5018497;28;46420;-57
2023/03/30 18:29:15;;;;;;;;;4.33;4.00;;;;;;;;4992512;28;45531;-58
2023/03/30 18:31:40;;;;;;;;;3.33;2.67;;;;;;;;5001103;28;45364;-57
2023/03/30 18:34:05;;;;;;;;;4.00;2.00;;;;;;;;5008195;28;45555;-59
2023/03/30 18:36:30;;;;;;;;;3.67;3.00;;;;;;;;5017513;28;45590;-59
2023/03/30 18:38:55;;;;;;;;;6.33;4.00;;;;;;;;5007670;28;45299;-57
2023/03/30 18:41:21;;;;;;;;;2.33;1.00;;;;;;;;5014331;28;45210;-59
2023/03/30 18:43:46;;;;;;;;;6.00;2.00;;;;;;;;5009733;28;47142;-59
2023/03/30 18:46:11;;;;;;;;;3.00;2.00;;;;;;;;5010308;28;47362;-59
2023/03/30 18:48:36;;;;;;;;;4.00;1.33;;;;;;;;5009167;28;45458;-59
2023/03/30 18:51:02;;;;;;;;;2.33;2.00;;;;;;;;5016611;28;45357;-59
2023/03/30 18:53:27;;;;;;;;;3.67;3.00;;;;;;;;5014567;28;45269;-59
2023/03/30 18:55:55;;;;;;;;;4.67;3.00;;;;;;;;5015857;28;46139;-59
2023/03/30 18:58:23;;;;;;;;;6.00;2.00;;;;;;;;5007759;28;45263;-59
2023/03/30 19:00:48;;;;;;;;;4.33;1.00;;;;;;;;5009549;28;45609;-59
2023/03/30 19:03:14;;;;;;;;;4.67;3.33;;;;;;;;5007509;28;45594;-58
2023/03/30 19:05:40;;;;;;;;;1.67;1.33;;;;;;;;5016956;28;46231;-59
2023/03/30 19:08:05;;;;;;;;;11.67;3.33;;;;;;;;5017939;28;45328;-59
2023/03/30 19:10:34;;;;;;;;;5.00;2.67;;;;;;;;5007096;28;45226;-58
2023/03/30 19:12:59;;;;;;;;;2.33;2.33;;;;;;;;5004252;28;45442;-58
2023/03/30 19:15:26;;;;;;;;;1.67;0.00;;;;;;;;5015269;28;45382;-59
2023/03/30 19:17:52;;;;;;;;;6.00;3.00;;;;;;;;5005122;28;45373;-59
2023/03/30 19:20:18;;;;;;;;;4.00;3.00;;;;;;;;5016199;28;45747;-59
2023/03/30 19:22:44;;;;;;;;;4.67;2.33;;;;;;;;5017881;28;45413;-59
2023/03/30 19:25:10;;;;;;;;;6.67;3.33;;;;;;;;5007874;28;45332;-58
2023/03/30 19:27:35;;;;;;;;;5.00;2.00;;;;;;;;5017993;28;45475;-59
2023/03/30 19:30:00;;;;;;;;;3.33;2.67;;;;;;;;5007456;28;45494;-59
2023/03/30 19:32:26;;;;;;;;;5.00;3.00;;;;;;;;5018351;28;45453;-58
2023/03/30 19:34:51;;;;;;;;;3.50;2.00;;;;;;;;5019295;28;46991;-58
2023/03/30 19:37:16;;;;;;;;;4.00;3.00;;;;;;;;5018014;28;45283;-59
2023/03/30 19:39:43;;;;;;;;;3.00;1.67;;;;;;;;5012958;28;45788;-58
2023/03/30 19:42:08;;;;;;;;;2.67;2.00;;;;;;;;5023859;28;45495;-59
2023/03/30 19:44:33;;;;;;;;;2.00;2.00;;;;;;;;5019984;28;47322;-58
2023/03/30 19:46:58;;;;;;;;;2.00;2.00;;;;;;;;5023670;28;45529;-59
2023/03/30 19:49:23;;;;;;;;;6.33;4.67;;;;;;;;5018118;28;45509;-59
2023/03/30 19:51:49;;;;;;;;;3.00;2.00;;;;;;;;5030293;28;45654;-59